Time;durP1;ratioP1;P1;durP2;ratioP2;P2;SDS_P1;SDS_P2;PMS_P1;PMS_P2;Temp;Humidity;BMP_temperature;BMP_pressure;BME280_temperature;BME280_humidity;BME280_pressure;Samples;Min_cycle;Max_cycle;Signal;HPM_P1;HPM_P2
2023/01/03 00:00:35;;;;;;;12.43;1.13;;;;;;;;;;5084331;28;20044;-71
2023/01/03 00:03:02;;;;;;;7.68;0.85;;;;;;;;;;5084245;28;20047;-70
2023/01/03 00:05:31;;;;;;;3.88;0.77;;;;;;;;;;5083184;28;20052;-69
2023/01/03 00:07:58;;;;;;;7.80;0.95;;;;;;;;;;5064517;28;20150;-70
2023/01/03 00:10:25;;;;;;;5.28;0.77;;;;;;;;;;5086671;28;20379;-70
2023/01/03 00:12:53;;;;;;;8.80;1.10;;;;;;;;;;5085147;28;20048;-71
2023/01/03 00:15:20;;;;;;;11.88;1.15;;;;;;;;;;5086734;28;20052;-70
2023/01/03 00:17:47;;;;;;;2.58;0.88;;;;;;;;;;5070135;28;20690;-70
2023/01/03 00:20:14;;;;;;;12.27;0.85;;;;;;;;;;5081394;28;20041;-72
2023/01/03 00:22:43;;;;;;;5.80;0.80;;;;;;;;;;5084450;28;20083;-69
2023/01/03 00:25:10;;;;;;;5.13;0.80;;;;;;;;;;5085425;28;20394;-70
2023/01/03 00:27:38;;;;;;;3.97;0.80;;;;;;;;;;5084958;28;20512;-71
2023/01/03 00:30:05;;;;;;;6.68;0.82;;;;;;;;;;5083308;28;20509;-69
2023/01/03 00:32:33;;;;;;;9.43;0.85;;;;;;;;;;5079701;28;20055;-69
2023/01/03 00:35:00;;;;;;;6.15;0.77;;;;;;;;;;5082221;28;20055;-69
2023/01/03 00:37:27;;;;;;;5.10;0.73;;;;;;;;;;5079530;28;20402;-70
2023/01/03 00:39:56;;;;;;;4.43;0.63;;;;;;;;;;5088695;28;20056;-69
2023/01/03 00:42:23;;;;;;;5.30;0.88;;;;;;;;;;5089768;28;20051;-69
2023/01/03 00:44:50;;;;;;;11.52;1.10;;;;;;;;;;5083739;28;20530;-69
2023/01/03 00:47:17;;;;;;;13.63;1.23;;;;;;;;;;5082377;28;20395;-70
2023/01/03 00:49:45;;;;;;;4.90;1.00;;;;;;;;;;5085432;28;20075;-70
2023/01/03 00:52:12;;;;;;;7.55;1.40;;;;;;;;;;5083463;28;20486;-70
2023/01/03 00:54:39;;;;;;;6.25;0.90;;;;;;;;;;5079804;28;20656;-70
2023/01/03 00:57:08;;;;;;;9.65;1.20;;;;;;;;;;5085961;28;20047;-70
2023/01/03 00:59:35;;;;;;;5.32;0.80;;;;;;;;;;5081963;28;20071;-69
2023/01/03 01:02:03;;;;;;;7.10;0.88;;;;;;;;;;5080250;28;20041;-71
2023/01/03 01:04:32;;;;;;;4.57;1.00;;;;;;;;;;5068171;28;20109;-70
2023/01/03 01:07:00;;;;;;;8.40;0.80;;;;;;;;;;5082830;28;20055;-69
2023/01/03 01:09:28;;;;;;;5.93;0.75;;;;;;;;;;5082863;28;20048;-71
2023/01/03 01:11:55;;;;;;;12.73;1.08;;;;;;;;;;5086155;28;20556;-69
2023/01/03 01:14:25;;;;;;;5.55;0.90;;;;;;;;;;5078584;28;20059;-70
2023/01/03 01:16:56;;;;;;;7.18;1.10;;;;;;;;;;5083701;28;20106;-71
2023/01/03 01:19:24;;;;;;;6.60;0.43;;;;;;;;;;5083271;28;20044;-70
2023/01/03 01:21:52;;;;;;;6.53;0.75;;;;;;;;;;5079528;28;20095;-70
2023/01/03 01:24:19;;;;;;;6.65;0.98;;;;;;;;;;5083530;28;20392;-70
2023/01/03 01:26:47;;;;;;;5.40;0.57;;;;;;;;;;5063646;28;20730;-70
2023/01/03 01:29:14;;;;;;;2.38;0.50;;;;;;;;;;5082758;28;20048;-69
2023/01/03 01:31:43;;;;;;;8.10;0.80;;;;;;;;;;5061367;28;20055;-71
2023/01/03 01:34:11;;;;;;;5.30;0.60;;;;;;;;;;5084488;28;20043;-71
2023/01/03 01:36:40;;;;;;;3.63;0.35;;;;;;;;;;5063916;28;20049;-70
2023/01/03 01:39:09;;;;;;;6.22;0.70;;;;;;;;;;5088077;28;20063;-70
2023/01/03 01:44:55;;;;;;;6.72;0.85;;;;;;;;;;5080478;28;20450;-70
2023/01/03 01:47:29;;;;;;;3.67;1.00;;;;;;;;;;5001066;28;20075;-69
2023/01/03 01:49:59;;;;;;;5.53;0.68;;;;;;;;;;5001223;28;20057;-70
2023/01/03 01:52:27;;;;;;;5.90;0.68;;;;;;;;;;5038974;28;20479;-71
2023/01/03 01:54:56;;;;;;;5.13;0.30;;;;;;;;;;5077964;28;20056;-69
2023/01/03 01:57:25;;;;;;;5.13;0.60;;;;;;;;;;5079955;28;20454;-70
2023/01/03 01:59:52;;;;;;;4.32;0.50;;;;;;;;;;5077978;28;20462;-70
2023/01/03 02:02:21;;;;;;;8.15;0.50;;;;;;;;;;5082951;28;20059;-69
2023/01/03 02:04:51;;;;;;;9.70;0.50;;;;;;;;;;5081532;28;20067;-70
2023/01/03 02:07:19;;;;;;;4.85;0.63;;;;;;;;;;5065187;28;20069;-70
2023/01/03 02:09:47;;;;;;;7.30;0.70;;;;;;;;;;5081671;28;20052;-69
2023/01/03 02:15:09;;;;;;;11.48;0.65;;;;;;;;;;5078879;28;20548;-69
2023/01/03 02:17:39;;;;;;;5.65;0.75;;;;;;;;;;5079820;28;20052;-70
2023/01/03 02:20:14;;;;;;;8.18;1.05;;;;;;;;;;5074721;28;20052;-70
2023/01/03 02:22:49;;;;;;;4.97;0.55;;;;;;;;;;5079227;28;20045;-70
2023/01/03 02:25:38;;;;;;;12.15;0.80;;;;;;;;;;5062015;28;20064;-70
2023/01/03 02:28:24;;;;;;;7.05;0.70;;;;;;;;;;5037579;28;20420;-69
2023/01/03 02:30:55;;;;;;;5.15;1.00;;;;;;;;;;5079896;28;20131;-70
2023/01/03 02:33:26;;;;;;;3.05;0.70;;;;;;;;;;5078797;28;20058;-69
2023/01/03 02:35:59;;;;;;;7.72;1.15;;;;;;;;;;5077839;28;20052;-70
2023/01/03 02:38:29;;;;;;;6.32;0.68;;;;;;;;;;5081917;28;20044;-70
2023/01/03 02:41:00;;;;;;;6.20;0.70;;;;;;;;;;5075004;28;20044;-69
2023/01/03 02:43:29;;;;;;;7.53;0.60;;;;;;;;;;5079751;28;20044;-71
2023/01/03 02:46:03;;;;;;;4.75;0.52;;;;;;;;;;5074605;28;20055;-71
2023/01/03 02:48:36;;;;;;;3.25;0.57;;;;;;;;;;5078850;28;20052;-69
2023/01/03 02:51:04;;;;;;;14.65;0.88;;;;;;;;;;5064950;28;20060;-71
2023/01/03 02:53:32;;;;;;;8.30;1.38;;;;;;;;;;5085185;28;20523;-69
2023/01/03 02:56:02;;;;;;;4.53;0.52;;;;;;;;;;5062683;28;20044;-69
2023/01/03 02:58:32;;;;;;;4.68;0.60;;;;;;;;;;5082179;28;20506;-70
2023/01/03 03:01:01;;;;;;;6.68;0.68;;;;;;;;;;5082356;28;20059;-69
2023/01/03 03:03:31;;;;;;;8.93;0.73;;;;;;;;;;5081519;28;20052;-69
2023/01/03 03:06:02;;;;;;;7.40;0.57;;;;;;;;;;5084600;28;20057;-69
2023/01/03 03:08:29;;;;;;;1.25;0.30;;;;;;;;;;5087777;28;20055;-69
2023/01/03 03:13:46;;;;;;;5.30;0.57;;;;;;;;;;5082886;28;20046;-70
2023/01/03 03:16:18;;;;;;;9.77;1.98;;;;;;;;;;5084528;28;20359;-70
2023/01/03 03:18:50;;;;;;;6.38;0.88;;;;;;;;;;5086575;28;20070;-69
2023/01/03 03:26:57;;;;;;;7.43;1.20;;;;;;;;;;5083400;28;21087;-69
2023/01/03 03:29:24;;;;;;;8.00;1.17;;;;;;;;;;5080468;28;20060;-72
2023/01/03 03:31:54;;;;;;;5.72;0.82;;;;;;;;;;5087959;28;20478;-70
2023/01/03 03:34:25;;;;;;;5.70;1.05;;;;;;;;;;5087171;28;20163;-71
2023/01/03 03:36:55;;;;;;;4.88;1.10;;;;;;;;;;5079254;28;20418;-70
2023/01/03 03:45:01;;;;;;;5.97;0.85;;;;;;;;;;5082982;28;20625;-69
2023/01/03 03:47:34;;;;;;;6.43;0.88;;;;;;;;;;5085715;28;20055;-69
2023/01/03 03:50:02;;;;;;;10.40;1.00;;;;;;;;;;5088062;28;20046;-69
2023/01/03 03:52:31;;;;;;;3.35;0.70;;;;;;;;;;5085957;28;20044;-69
2023/01/03 03:55:02;;;;;;;2.22;0.70;;;;;;;;;;5087501;28;20614;-70
2023/01/03 03:57:31;;;;;;;9.95;0.95;;;;;;;;;;5084945;28;20059;-70
2023/01/03 04:00:01;;;;;;;8.25;1.23;;;;;;;;;;5065688;28;20475;-69
2023/01/03 04:02:29;;;;;;;3.42;0.68;;;;;;;;;;5085177;28;20056;-71
2023/01/03 04:05:01;;;;;;;9.57;1.08;;;;;;;;;;5082308;28;20112;-69
2023/01/03 04:07:28;;;;;;;7.97;1.08;;;;;;;;;;5064528;28;20064;-70
2023/01/03 04:09:56;;;;;;;6.57;0.95;;;;;;;;;;5087206;28;20047;-69
2023/01/03 04:12:23;;;;;;;5.50;0.95;;;;;;;;;;5088587;28;20398;-69
2023/01/03 04:14:50;;;;;;;6.85;1.30;;;;;;;;;;5081230;28;20047;-70
2023/01/03 04:17:18;;;;;;;5.78;1.23;;;;;;;;;;5085450;28;20793;-70
2023/01/03 04:19:45;;;;;;;10.95;1.35;;;;;;;;;;5077869;28;20416;-69
2023/01/03 04:22:13;;;;;;;2.83;0.82;;;;;;;;;;5084659;28;20048;-70
2023/01/03 04:24:41;;;;;;;10.50;1.33;;;;;;;;;;5081719;28;20039;-69
2023/01/03 04:27:09;;;;;;;8.68;1.20;;;;;;;;;;5060525;28;20057;-70
2023/01/03 04:29:36;;;;;;;7.00;1.17;;;;;;;;;;5083311;28;20052;-72
2023/01/03 04:32:03;;;;;;;6.85;1.30;;;;;;;;;;5068067;28;20406;-70
2023/01/03 04:34:30;;;;;;;5.43;1.00;;;;;;;;;;5086646;28;20052;-70
2023/01/03 04:36:57;;;;;;;4.90;1.10;;;;;;;;;;5086474;28;20461;-71
2023/01/03 04:39:26;;;;;;;4.32;1.30;;;;;;;;;;5080613;28;20048;-69
2023/01/03 04:41:53;;;;;;;5.10;1.20;;;;;;;;;;5085091;28;20044;-69
2023/01/03 04:44:20;;;;;;;7.45;1.42;;;;;;;;;;5074660;28;20419;-71
2023/01/03 04:46:47;;;;;;;8.45;1.50;;;;;;;;;;5086145;28;20045;-69
2023/01/03 04:49:14;;;;;;;8.43;1.50;;;;;;;;;;5082735;28;20055;-69
2023/01/03 04:51:41;;;;;;;5.90;1.30;;;;;;;;;;5084176;28;20040;-70
2023/01/03 04:54:08;;;;;;;5.85;1.42;;;;;;;;;;5079202;28;20048;-71
2023/01/03 04:56:38;;;;;;;8.27;1.50;;;;;;;;;;5079606;28;20218;-71
2023/01/03 04:59:05;;;;;;;7.50;1.33;;;;;;;;;;5083883;28;20098;-71
2023/01/03 05:01:33;;;;;;;7.32;1.65;;;;;;;;;;5086726;28;20047;-71
2023/01/03 05:04:01;;;;;;;7.28;1.70;;;;;;;;;;5084968;28;20045;-69
2023/01/03 05:06:28;;;;;;;6.00;1.48;;;;;;;;;;5081743;28;20114;-70
2023/01/03 05:08:56;;;;;;;9.48;1.90;;;;;;;;;;5085571;28;20051;-71
2023/01/03 05:11:23;;;;;;;7.95;1.88;;;;;;;;;;5086212;28;20056;-71
2023/01/03 05:13:51;;;;;;;8.43;2.00;;;;;;;;;;5065229;28;20063;-72
2023/01/03 05:16:19;;;;;;;7.43;2.35;;;;;;;;;;5081545;28;20060;-70
2023/01/03 05:18:48;;;;;;;6.32;1.83;;;;;;;;;;5085831;28;20055;-70
2023/01/03 05:26:55;;;;;;;7.32;2.03;;;;;;;;;;5087312;28;20721;-70
2023/01/03 05:29:24;;;;;;;7.45;2.38;;;;;;;;;;5082236;28;20048;-69
2023/01/03 05:31:52;;;;;;;10.25;1.92;;;;;;;;;;5081358;28;20044;-70
2023/01/03 05:34:19;;;;;;;6.38;2.33;;;;;;;;;;5081986;28;20055;-70
2023/01/03 05:36:46;;;;;;;8.57;2.50;;;;;;;;;;5081845;28;20052;-70
2023/01/03 05:39:14;;;;;;;10.82;4.10;;;;;;;;;;5086153;28;20052;-70
2023/01/03 05:41:59;;;;;;;7.72;2.33;;;;;;;;;;5084493;28;20075;-71
2023/01/03 05:44:29;;;;;;;8.85;2.60;;;;;;;;;;5080170;28;20549;-70
2023/01/03 05:46:56;;;;;;;7.07;2.22;;;;;;;;;;5084770;28;20062;-72
2023/01/03 05:49:23;;;;;;;5.78;2.20;;;;;;;;;;5081352;28;20056;-70
2023/01/03 05:51:50;;;;;;;7.22;2.20;;;;;;;;;;5081248;28;20044;-71
2023/01/03 05:54:18;;;;;;;5.22;1.83;;;;;;;;;;5081742;28;20052;-71
2023/01/03 05:56:46;;;;;;;8.95;2.53;;;;;;;;;;5064244;28;20059;-70
2023/01/03 05:59:13;;;;;;;5.68;2.60;;;;;;;;;;5082188;28;20052;-69
2023/01/03 06:01:42;;;;;;;11.60;3.00;;;;;;;;;;5086096;28;20066;-71
2023/01/03 06:04:09;;;;;;;8.77;2.30;;;;;;;;;;5084854;28;20280;-70
2023/01/03 06:06:37;;;;;;;4.38;2.13;;;;;;;;;;5085498;28;20086;-70
2023/01/03 06:09:04;;;;;;;4.60;2.03;;;;;;;;;;5084465;28;20052;-71
2023/01/03 06:11:31;;;;;;;8.85;2.22;;;;;;;;;;5084023;28;20056;-69
2023/01/03 06:13:58;;;;;;;9.20;2.95;;;;;;;;;;5082531;28;20438;-70
2023/01/03 06:19:12;;;;;;;7.85;2.53;;;;;;;;;;5083469;28;20044;-69
2023/01/03 06:21:40;;;;;;;5.57;1.98;;;;;;;;;;5082027;28;20052;-70
2023/01/03 06:24:08;;;;;;;6.45;2.80;;;;;;;;;;5079930;28;20053;-69
2023/01/03 06:26:35;;;;;;;7.32;2.42;;;;;;;;;;5080276;28;20045;-70
2023/01/03 06:29:03;;;;;;;5.60;2.05;;;;;;;;;;5079738;28;20040;-71
2023/01/03 06:31:30;;;;;;;7.63;2.80;;;;;;;;;;5079091;28;20055;-69
2023/01/03 06:33:57;;;;;;;10.07;2.13;;;;;;;;;;5076223;28;20044;-69
2023/01/03 06:36:26;;;;;;;10.98;2.33;;;;;;;;;;5080422;28;20055;-69
2023/01/03 06:38:53;;;;;;;8.70;2.42;;;;;;;;;;5082635;28;20044;-70
2023/01/03 06:41:21;;;;;;;8.05;2.30;;;;;;;;;;5082362;28;20052;-70
2023/01/03 06:43:48;;;;;;;6.20;2.33;;;;;;;;;;5081613;28;20051;-69
2023/01/03 06:54:35;;;;;;;15.57;8.65;;;;;;;;;;5055379;28;20062;-71
2023/01/03 06:57:02;;;;;;;21.75;9.50;;;;;;;;;;5083643;28;20036;-69
2023/01/03 06:59:30;;;;;;;24.20;10.77;;;;;;;;;;5081589;28;20048;-70
2023/01/03 07:01:57;;;;;;;18.00;9.63;;;;;;;;;;5065191;28;20063;-70
2023/01/03 07:04:25;;;;;;;18.02;9.02;;;;;;;;;;5075215;28;20052;-69
2023/01/03 07:06:53;;;;;;;22.00;9.25;;;;;;;;;;5084986;28;20055;-69
2023/01/03 07:09:21;;;;;;;17.98;8.57;;;;;;;;;;5079612;28;20043;-70
2023/01/03 07:11:48;;;;;;;20.90;10.35;;;;;;;;;;5079900;28;20051;-70
2023/01/03 07:14:14;;;;;;;19.17;9.70;;;;;;;;;;5079212;28;20040;-70
2023/01/03 07:16:42;;;;;;;26.55;9.77;;;;;;;;;;5076309;28;20128;-69
2023/01/03 07:19:12;;;;;;;22.90;9.93;;;;;;;;;;5072343;28;20056;-70
2023/01/03 07:21:39;;;;;;;17.73;9.10;;;;;;;;;;5075838;28;20055;-71
2023/01/03 07:24:08;;;;;;;22.77;9.05;;;;;;;;;;5078995;28;20432;-69
2023/01/03 07:26:36;;;;;;;15.38;8.20;;;;;;;;;;5079635;28;20052;-70
2023/01/03 07:29:04;;;;;;;16.70;8.52;;;;;;;;;;5075762;28;20749;-72
2023/01/03 07:31:32;;;;;;;19.77;8.70;;;;;;;;;;5082578;28;20059;-70
2023/01/03 07:33:59;;;;;;;16.33;9.05;;;;;;;;;;5080038;28;20055;-71
2023/01/03 07:36:26;;;;;;;19.35;8.68;;;;;;;;;;5080404;28;20048;-70
2023/01/03 07:38:55;;;;;;;17.88;9.43;;;;;;;;;;5080415;28;20040;-71
2023/01/03 07:43:35;;;;;;;21.80;9.88;;;;;;;;;;5080630;28;20153;-70
2023/01/03 07:44:11;;;;;;;20.80;10.35;;;;;;;;;;5079906;28;20052;-70
2023/01/03 07:46:38;;;;;;;23.23;10.98;;;;;;;;;;5057392;28;20052;-70
2023/01/03 07:49:05;;;;;;;21.17;10.35;;;;;;;;;;5078383;28;20041;-70
2023/01/03 07:51:32;;;;;;;23.70;11.13;;;;;;;;;;5074629;28;20045;-69
2023/01/03 07:54:01;;;;;;;28.70;12.57;;;;;;;;;;5080955;28;20048;-70
2023/01/03 07:56:29;;;;;;;25.35;11.52;;;;;;;;;;5079831;28;20503;-70
2023/01/03 07:58:57;;;;;;;21.63;10.85;;;;;;;;;;5076491;28;20079;-70
2023/01/03 08:01:25;;;;;;;23.65;10.88;;;;;;;;;;5083500;28;20055;-71
2023/01/03 08:03:52;;;;;;;24.60;11.35;;;;;;;;;;5079830;28;20209;-73
2023/01/03 08:06:21;;;;;;;23.27;10.77;;;;;;;;;;5060988;28;20049;-70
2023/01/03 08:13:16;;;;;;;22.95;11.18;;;;;;;;;;5063648;28;20071;-69
2023/01/03 08:14:23;;;;;;;25.58;10.70;;;;;;;;;;5062367;28;20052;-71
2023/01/03 08:16:50;;;;;;;19.80;9.88;;;;;;;;;;5084230;28;20048;-69
2023/01/03 08:19:17;;;;;;;21.70;9.68;;;;;;;;;;5078887;28;20043;-71
2023/01/03 08:21:44;;;;;;;17.65;9.25;;;;;;;;;;5077422;28;20569;-69
2023/01/03 08:24:12;;;;;;;18.00;9.80;;;;;;;;;;5062617;28;20044;-70
2023/01/03 08:26:40;;;;;;;18.13;8.90;;;;;;;;;;5082397;28;20503;-71
2023/01/03 08:29:08;;;;;;;18.05;9.52;;;;;;;;;;5082319;28;20627;-70
2023/01/03 08:31:37;;;;;;;17.80;9.57;;;;;;;;;;5083371;28;20048;-70
2023/01/03 08:34:07;;;;;;;18.67;10.02;;;;;;;;;;5078908;28;20123;-71
2023/01/03 08:36:36;;;;;;;20.98;11.35;;;;;;;;;;5080705;28;20070;-70
2023/01/03 08:39:05;;;;;;;24.83;12.05;;;;;;;;;;5082623;28;20048;-70
2023/01/03 08:41:35;;;;;;;22.63;12.68;;;;;;;;;;5080924;28;20041;-69
2023/01/03 08:44:04;;;;;;;25.95;14.13;;;;;;;;;;5081557;28;20037;-69
2023/01/03 08:46:32;;;;;;;28.63;15.45;;;;;;;;;;5081763;28;20044;-69
2023/01/03 08:49:00;;;;;;;30.77;16.67;;;;;;;;;;5076437;28;20135;-70
2023/01/03 08:51:28;;;;;;;31.25;17.05;;;;;;;;;;5079249;28;20058;-68
2023/01/03 08:53:56;;;;;;;28.83;16.55;;;;;;;;;;5075455;28;20044;-70
2023/01/03 08:56:23;;;;;;;35.38;17.65;;;;;;;;;;5082174;28;20091;-69
2023/01/03 08:58:51;;;;;;;28.90;17.20;;;;;;;;;;5078734;28;20509;-71
2023/01/03 09:01:20;;;;;;;31.52;17.75;;;;;;;;;;5085459;28;20060;-70
2023/01/03 09:03:47;;;;;;;35.60;18.45;;;;;;;;;;5066457;28;20048;-70
2023/01/03 09:06:14;;;;;;;29.58;17.20;;;;;;;;;;5078033;28;20098;-71
2023/01/03 09:08:42;;;;;;;38.88;18.63;;;;;;;;;;5081746;28;20406;-70
2023/01/03 09:11:09;;;;;;;37.35;20.00;;;;;;;;;;5078451;28;20048;-71
2023/01/03 09:13:37;;;;;;;38.65;20.83;;;;;;;;;;5065921;28;20061;-71
2023/01/03 09:16:05;;;;;;;45.90;17.38;;;;;;;;;;5058072;28;20051;-70
2023/01/03 09:18:33;;;;;;;79.32;16.40;;;;;;;;;;5078929;28;20479;-72
2023/01/03 09:21:02;;;;;;;80.28;16.15;;;;;;;;;;5082411;28;20044;-70
2023/01/03 09:23:29;;;;;;;76.82;15.90;;;;;;;;;;5083413;28;20493;-69
2023/01/03 09:25:56;;;;;;;65.10;15.23;;;;;;;;;;5081457;28;20059;-71
2023/01/03 09:28:24;;;;;;;55.50;16.05;;;;;;;;;;5078187;28;20055;-68
2023/01/03 09:30:51;;;;;;;42.85;15.57;;;;;;;;;;5079233;28;20040;-70
2023/01/03 09:33:19;;;;;;;101.93;17.73;;;;;;;;;;5084313;28;20078;-69
2023/01/03 09:35:47;;;;;;;60.13;15.98;;;;;;;;;;5083912;28;20356;-71
2023/01/03 09:38:15;;;;;;;55.90;16.00;;;;;;;;;;5056105;28;20090;-70
2023/01/03 09:40:44;;;;;;;55.72;14.85;;;;;;;;;;5083152;28;20048;-69
2023/01/03 09:43:14;;;;;;;50.47;15.75;;;;;;;;;;5076340;28;20113;-69
2023/01/03 09:45:42;;;;;;;64.05;15.57;;;;;;;;;;5057996;28;20078;-70
2023/01/03 09:48:11;;;;;;;70.25;15.02;;;;;;;;;;5078834;28;20048;-71
2023/01/03 09:50:39;;;;;;;55.80;14.02;;;;;;;;;;5081300;28;20055;-69
2023/01/03 10:04:29;;;;;;;40.90;16.50;;;;;;;;;;5083727;28;20044;-70
2023/01/03 10:07:00;;;;;;;47.05;16.65;;;;;;;;;;5079532;28;20056;-68
2023/01/03 10:09:33;;;;;;;36.92;16.70;;;;;;;;;;5082668;28;20489;-70
2023/01/03 10:12:04;;;;;;;33.20;16.37;;;;;;;;;;5077063;28;20052;-72
2023/01/03 10:14:39;;;;;;;33.63;17.65;;;;;;;;;;5080372;28;20778;-69
2023/01/03 10:17:11;;;;;;;37.53;17.23;;;;;;;;;;5077540;28;20513;-70
2023/01/03 10:19:47;;;;;;;32.55;17.38;;;;;;;;;;5082284;28;20048;-69
2023/01/03 10:22:15;;;;;;;38.95;19.15;;;;;;;;;;5078506;28;21241;-69
2023/01/03 10:24:46;;;;;;;36.33;18.38;;;;;;;;;;5076925;28;20047;-69
2023/01/03 10:27:15;;;;;;;43.67;20.05;;;;;;;;;;5055836;28;20514;-69
2023/01/03 10:29:43;;;;;;;54.85;20.30;;;;;;;;;;5076551;28;20055;-69
2023/01/03 10:32:19;;;;;;;48.15;21.60;;;;;;;;;;5082169;28;20047;-69
2023/01/03 10:34:46;;;;;;;48.75;21.60;;;;;;;;;;5081451;28;20520;-70
2023/01/03 10:37:17;;;;;;;51.90;23.13;;;;;;;;;;5057424;28;20056;-70
2023/01/03 10:39:46;;;;;;;52.15;23.27;;;;;;;;;;5079561;28;20127;-69
2023/01/03 10:42:16;;;;;;;55.67;24.15;;;;;;;;;;5077943;28;20487;-69
2023/01/03 10:44:56;;;;;;;65.43;24.75;;;;;;;;;;5077383;28;20402;-69
2023/01/03 10:47:25;;;;;;;54.38;22.77;;;;;;;;;;5080742;28;20055;-69
2023/01/03 10:49:58;;;;;;;65.85;25.10;;;;;;;;;;5076713;28;20059;-69
2023/01/03 10:52:30;;;;;;;68.00;26.02;;;;;;;;;;5075677;28;20052;-69
2023/01/03 10:55:01;;;;;;;60.47;25.23;;;;;;;;;;5072327;28;20044;-71
2023/01/03 10:57:36;;;;;;;61.60;24.23;;;;;;;;;;5075913;28;20055;-70
2023/01/03 11:00:21;;;;;;;61.10;24.92;;;;;;;;;;5077747;28;20055;-70
2023/01/03 11:02:48;;;;;;;61.13;24.73;;;;;;;;;;5076294;28;20044;-69
2023/01/03 11:05:17;;;;;;;58.60;26.15;;;;;;;;;;5073556;28;20052;-71
2023/01/03 11:07:44;;;;;;;69.25;29.00;;;;;;;;;;5054518;28;20048;-70
2023/01/03 11:10:18;;;;;;;64.43;27.02;;;;;;;;;;5074659;28;20095;-70
2023/01/03 11:12:46;;;;;;;69.85;29.35;;;;;;;;;;5072730;28;20123;-69
2023/01/03 11:15:16;;;;;;;81.20;30.17;;;;;;;;;;5075779;28;20139;-71
2023/01/03 11:17:53;;;;;;;75.40;30.30;;;;;;;;;;5073083;28;20048;-70
2023/01/03 11:20:21;;;;;;;81.50;30.73;;;;;;;;;;5076314;28;20414;-71
2023/01/03 11:22:49;;;;;;;80.25;32.08;;;;;;;;;;5077371;28;20051;-70
2023/01/03 11:25:26;;;;;;;79.95;31.73;;;;;;;;;;5079915;28;20051;-70
2023/01/03 11:28:11;;;;;;;83.85;32.85;;;;;;;;;;5074750;28;20527;-71
2023/01/03 11:30:41;;;;;;;80.40;31.90;;;;;;;;;;5046373;28;20083;-69
2023/01/03 11:33:19;;;;;;;84.13;32.97;;;;;;;;;;5082134;28;20052;-71
2023/01/03 11:35:52;;;;;;;74.45;31.77;;;;;;;;;;5074830;28;20040;-70
2023/01/03 11:38:32;;;;;;;82.13;32.42;;;;;;;;;;5080985;28;20101;-70
2023/01/03 11:41:10;;;;;;;79.78;31.50;;;;;;;;;;5081641;28;20462;-69
2023/01/03 11:43:44;;;;;;;78.50;31.23;;;;;;;;;;5082204;28;20135;-70
2023/01/03 11:46:28;;;;;;;76.30;32.35;;;;;;;;;;5080051;28;20048;-69
2023/01/03 11:49:02;;;;;;;79.80;32.30;;;;;;;;;;5083229;28;20466;-70
2023/01/03 11:51:34;;;;;;;77.63;34.00;;;;;;;;;;5078989;28;20402;-69
2023/01/03 11:54:04;;;;;;;80.85;34.47;;;;;;;;;;5083660;28;20109;-69
2023/01/03 11:56:35;;;;;;;77.03;32.65;;;;;;;;;;5081658;28;20137;-70
2023/01/03 11:59:06;;;;;;;74.18;34.13;;;;;;;;;;5088053;28;20370;-69
2023/01/03 12:01:47;;;;;;;76.90;32.58;;;;;;;;;;5062929;28;20056;-69
2023/01/03 12:04:24;;;;;;;88.68;32.78;;;;;;;;;;5085807;28;20048;-69
2023/01/03 12:06:54;;;;;;;76.40;33.63;;;;;;;;;;5085887;28;20044;-70
2023/01/03 12:09:25;;;;;;;76.13;33.35;;;;;;;;;;5084752;28;20414;-70
2023/01/03 12:12:01;;;;;;;82.72;33.17;;;;;;;;;;5080657;28;20490;-69
2023/01/03 12:14:33;;;;;;;74.97;32.63;;;;;;;;;;5082242;28;20052;-68
2023/01/03 12:17:03;;;;;;;75.07;33.28;;;;;;;;;;5084279;28;20056;-69
2023/01/03 12:19:34;;;;;;;73.75;33.13;;;;;;;;;;5088772;28;20579;-69
2023/01/03 12:22:04;;;;;;;80.07;33.33;;;;;;;;;;5085761;28;20066;-69
2023/01/03 12:24:34;;;;;;;67.38;31.95;;;;;;;;;;5082241;28;20054;-71
2023/01/03 12:27:04;;;;;;;73.32;33.20;;;;;;;;;;5061714;28;20055;-69
2023/01/03 12:29:34;;;;;;;64.90;32.05;;;;;;;;;;5082724;28;20138;-70
2023/01/03 12:32:04;;;;;;;65.00;31.48;;;;;;;;;;5087433;28;20462;-70
2023/01/03 12:34:35;;;;;;;78.78;34.05;;;;;;;;;;5086358;28;20044;-68
2023/01/03 12:37:07;;;;;;;71.82;33.10;;;;;;;;;;5081300;28;20072;-68
2023/01/03 12:39:41;;;;;;;64.82;30.55;;;;;;;;;;5075902;28;20048;-69
2023/01/03 12:42:15;;;;;;;74.78;32.53;;;;;;;;;;5078870;28;20043;-68
2023/01/03 12:44:43;;;;;;;66.80;31.27;;;;;;;;;;5081928;28;20051;-68
2023/01/03 12:47:16;;;;;;;80.40;31.98;;;;;;;;;;5083332;28;20711;-69
2023/01/03 12:49:45;;;;;;;71.03;30.98;;;;;;;;;;5056708;28;20552;-71
2023/01/03 12:52:15;;;;;;;65.10;31.10;;;;;;;;;;5073882;28;20055;-68
2023/01/03 12:54:44;;;;;;;69.45;29.85;;;;;;;;;;5082723;28;20048;-68
2023/01/03 12:57:26;;;;;;;71.43;32.65;;;;;;;;;;5059321;28;20521;-69
2023/01/03 13:00:08;;;;;;;75.30;31.67;;;;;;;;;;5059065;28;20048;-68
2023/01/03 13:02:42;;;;;;;72.97;32.25;;;;;;;;;;5082424;28;20048;-70
2023/01/03 13:05:15;;;;;;;70.55;30.45;;;;;;;;;;5085573;28;20046;-70
2023/01/03 13:07:45;;;;;;;68.68;30.10;;;;;;;;;;5057995;28;20045;-69
2023/01/03 13:10:15;;;;;;;68.70;29.60;;;;;;;;;;5077298;28;20475;-69
2023/01/03 13:12:44;;;;;;;76.18;31.25;;;;;;;;;;5087672;28;20048;-69
2023/01/03 13:15:19;;;;;;;66.90;30.88;;;;;;;;;;5086159;28;20048;-71
2023/01/03 13:17:48;;;;;;;76.47;30.88;;;;;;;;;;5083166;28;20122;-69
2023/01/03 13:20:33;;;;;;;68.82;30.17;;;;;;;;;;5085373;28;20044;-69
2023/01/03 13:23:00;;;;;;;66.15;30.00;;;;;;;;;;5082899;28;20052;-69
2023/01/03 13:25:32;;;;;;;62.28;29.27;;;;;;;;;;5083435;28;20394;-70
2023/01/03 13:28:00;;;;;;;63.22;29.23;;;;;;;;;;5084171;28;20398;-70
2023/01/03 13:30:30;;;;;;;61.88;27.13;;;;;;;;;;5080347;28;20044;-70
2023/01/03 13:33:06;;;;;;;70.13;30.40;;;;;;;;;;5081506;28;20070;-68
2023/01/03 13:35:34;;;;;;;61.90;29.33;;;;;;;;;;5076901;28;20051;-70
2023/01/03 13:38:17;;;;;;;68.07;31.08;;;;;;;;;;5078068;28;20048;-70
2023/01/03 13:40:46;;;;;;;63.72;28.58;;;;;;;;;;5078288;28;20462;-68
2023/01/03 13:43:17;;;;;;;69.30;30.10;;;;;;;;;;5077836;28;20044;-68
2023/01/03 13:45:54;;;;;;;75.57;30.10;;;;;;;;;;5074317;28;20045;-68
2023/01/03 13:48:25;;;;;;;74.88;32.67;;;;;;;;;;5080294;28;20040;-71
2023/01/03 13:51:06;;;;;;;88.95;32.28;;;;;;;;;;5074774;28;20044;-69
2023/01/03 13:53:37;;;;;;;80.65;32.72;;;;;;;;;;5082877;28;20052;-68
2023/01/03 13:56:21;;;;;;;81.63;31.83;;;;;;;;;;5081905;28;20118;-68
2023/01/03 13:58:51;;;;;;;77.40;32.63;;;;;;;;;;5080965;28;20674;-68
2023/01/03 14:01:23;;;;;;;78.72;31.60;;;;;;;;;;5081395;28;20072;-69
2023/01/03 14:04:02;;;;;;;87.30;32.07;;;;;;;;;;5086436;28;20525;-69
2023/01/03 14:06:43;;;;;;;97.10;33.58;;;;;;;;;;5079203;28;20048;-69
2023/01/03 14:09:34;;;;;;;76.53;31.15;;;;;;;;;;5078426;28;20453;-68
2023/01/03 14:12:22;;;;;;;81.07;31.83;;;;;;;;;;5080255;28;20121;-68
2023/01/03 14:14:55;;;;;;;81.93;31.10;;;;;;;;;;5076229;28;20052;-68
2023/01/03 14:17:25;;;;;;;71.37;30.60;;;;;;;;;;5057552;28;20087;-69
2023/01/03 14:19:55;;;;;;;78.85;31.05;;;;;;;;;;5084644;28;20056;-70
2023/01/03 14:22:23;;;;;;;77.97;30.83;;;;;;;;;;5078930;28;20052;-69
2023/01/03 14:24:53;;;;;;;73.28;29.83;;;;;;;;;;5076960;28;20055;-69
2023/01/03 14:27:22;;;;;;;72.43;28.65;;;;;;;;;;5079864;28;20055;-70
2023/01/03 14:29:51;;;;;;;54.60;27.17;;;;;;;;;;5077000;28;20044;-69
2023/01/03 14:32:20;;;;;;;57.53;26.98;;;;;;;;;;5075359;28;20060;-68
2023/01/03 14:34:47;;;;;;;63.35;26.63;;;;;;;;;;5079628;28;20075;-69
2023/01/03 14:37:17;;;;;;;54.92;25.23;;;;;;;;;;5072390;28;20508;-69
2023/01/03 14:39:52;;;;;;;50.58;25.15;;;;;;;;;;5072426;28;20146;-68
2023/01/03 14:42:19;;;;;;;53.03;24.50;;;;;;;;;;5081481;28;20055;-68
2023/01/03 14:44:50;;;;;;;60.80;24.25;;;;;;;;;;5079602;28;20082;-69
2023/01/03 14:47:18;;;;;;;56.10;24.73;;;;;;;;;;5078055;28;20531;-71
2023/01/03 14:49:46;;;;;;;59.42;25.50;;;;;;;;;;5079216;28;20044;-69
2023/01/03 14:52:18;;;;;;;50.33;23.90;;;;;;;;;;5075387;28;20040;-71
2023/01/03 14:54:47;;;;;;;56.20;25.10;;;;;;;;;;5074113;28;20052;-68
2023/01/03 14:57:19;;;;;;;47.80;23.08;;;;;;;;;;5075906;28;20047;-68
2023/01/03 14:59:46;;;;;;;43.72;21.83;;;;;;;;;;5070587;28;20048;-68
2023/01/03 15:02:14;;;;;;;51.15;22.70;;;;;;;;;;5074737;28;20056;-68
2023/01/03 15:04:43;;;;;;;42.67;21.30;;;;;;;;;;5075093;28;20135;-69
2023/01/03 15:07:27;;;;;;;42.63;21.08;;;;;;;;;;5082539;28;20047;-70
2023/01/03 15:10:02;;;;;;;43.85;22.00;;;;;;;;;;5079972;28;20048;-66
2023/01/03 15:12:30;;;;;;;44.05;21.33;;;;;;;;;;5086543;28;20047;-66
2023/01/03 15:14:57;;;;;;;37.50;19.60;;;;;;;;;;5082015;28;20052;-67
2023/01/03 15:17:26;;;;;;;37.28;19.48;;;;;;;;;;5078456;28;20474;-68
2023/01/03 15:19:54;;;;;;;39.17;19.40;;;;;;;;;;5083336;28;20048;-68
2023/01/03 15:22:24;;;;;;;36.28;18.90;;;;;;;;;;5086656;28;20052;-67
2023/01/03 15:24:53;;;;;;;36.80;17.95;;;;;;;;;;5092930;28;20491;-68
2023/01/03 15:27:34;;;;;;;39.75;18.05;;;;;;;;;;5081701;28;20052;-69
2023/01/03 15:30:19;;;;;;;34.88;19.23;;;;;;;;;;5089267;28;20051;-68
2023/01/03 15:32:49;;;;;;;38.53;18.27;;;;;;;;;;5080465;28;20123;-67
2023/01/03 15:35:20;;;;;;;42.40;17.83;;;;;;;;;;5067256;28;20052;-68